createdAt,value
2023-05-19T00:00:52.728Z,80
2023-05-19T00:03:30.487Z,80
2023-05-19T00:06:01.044Z,80
2023-05-19T00:08:32.080Z,80
2023-05-19T00:11:02.695Z,80
2023-05-19T00:13:32.981Z,80
2023-05-19T00:16:03.484Z,80
2023-05-19T00:18:34.121Z,81
2023-05-19T00:21:05.999Z,80
2023-05-19T00:23:36.515Z,80
2023-05-19T00:26:07.231Z,80
2023-05-19T00:28:44.048Z,81
2023-05-19T00:31:14.107Z,81
2023-05-19T00:33:44.664Z,81
2023-05-19T00:36:15.235Z,80
2023-05-19T00:38:48.880Z,80
2023-05-19T00:41:19.382Z,80
2023-05-19T00:43:49.934Z,81
2023-05-19T00:46:21.154Z,80
2023-05-19T00:48:51.420Z,80
2023-05-19T00:51:21.941Z,81
2023-05-19T00:53:52.859Z,81
2023-05-19T00:56:24.273Z,81
2023-05-19T00:58:54.605Z,81
2023-05-19T01:01:25.213Z,80
2023-05-19T01:03:56.587Z,81
2023-05-19T01:06:27.832Z,80
2023-05-19T01:08:58.299Z,80
2023-05-19T01:11:29.309Z,81
2023-05-19T01:13:59.999Z,80
2023-05-19T01:16:30.855Z,80
2023-05-19T01:19:01.957Z,81
2023-05-19T01:21:32.711Z,81
2023-05-19T01:24:07.607Z,80
2023-05-19T01:26:38.360Z,81
2023-05-19T01:29:08.805Z,80
2023-05-19T01:31:39.257Z,80
2023-05-19T01:34:10.740Z,80
2023-05-19T01:36:41.637Z,80
2023-05-19T01:39:12.371Z,80
2023-05-19T01:41:42.971Z,80
2023-05-19T01:44:14.066Z,80
2023-05-19T01:46:44.924Z,80
2023-05-19T01:49:15.315Z,80
2023-05-19T01:51:46.174Z,80
2023-05-19T01:54:17.170Z,81
2023-05-19T01:56:47.627Z,81
2023-05-19T01:59:18.539Z,81
2023-05-19T02:01:49.433Z,81
2023-05-19T02:04:20.071Z,81
2023-05-19T02:06:51.000Z,81
2023-05-19T02:09:22.060Z,80
2023-05-19T02:11:52.531Z,80
2023-05-19T02:14:25.738Z,80
2023-05-19T02:16:56.946Z,80
2023-05-19T02:19:27.410Z,80
2023-05-19T02:21:57.491Z,81
2023-05-19T02:24:30.227Z,81
2023-05-19T02:27:00.742Z,80
2023-05-19T02:29:31.240Z,81
2023-05-19T02:32:02.737Z,81
2023-05-19T02:34:34.006Z,81
2023-05-19T02:37:04.903Z,81
2023-05-19T02:39:36.373Z,80
2023-05-19T02:42:07.818Z,82
2023-05-19T02:44:38.894Z,82
2023-05-19T02:47:10.024Z,81
2023-05-19T02:49:41.474Z,81
2023-05-19T02:52:12.329Z,81
2023-05-19T02:54:42.725Z,82
2023-05-19T02:57:13.688Z,82
2023-05-19T02:59:44.542Z,81
2023-05-19T03:02:15.608Z,82
2023-05-19T03:04:46.639Z,82
2023-05-19T03:07:18.025Z,82
2023-05-19T03:09:48.330Z,81
2023-05-19T03:12:19.129Z,81
2023-05-19T03:14:50.363Z,82
2023-05-19T03:17:25.291Z,82
2023-05-19T03:19:55.506Z,82
2023-05-19T03:22:25.960Z,82
2023-05-19T03:24:56.559Z,82
2023-05-19T03:27:27.375Z,82
2023-05-19T03:29:58.055Z,82
2023-05-19T03:32:32.570Z,82
2023-05-19T03:35:03.307Z,82
2023-05-19T03:37:34.631Z,82
2023-05-19T03:40:05.067Z,81
2023-05-19T03:42:36.119Z,82
2023-05-19T03:45:07.009Z,81
2023-05-19T03:47:37.826Z,82
2023-05-19T03:50:08.643Z,82
2023-05-19T03:52:39.357Z,82
2023-05-19T03:55:10.080Z,82
2023-05-19T03:57:41.162Z,82
2023-05-19T04:00:11.561Z,82
2023-05-19T04:02:42.289Z,82
2023-05-19T04:05:13.044Z,82
2023-05-19T04:07:43.884Z,82
2023-05-19T04:10:15.276Z,82
2023-05-19T04:12:45.736Z,82
2023-05-19T04:15:16.498Z,83
2023-05-19T04:17:47.508Z,83
2023-05-19T04:20:18.370Z,83
2023-05-19T04:22:49.577Z,83
2023-05-19T04:25:20.375Z,82
2023-05-19T04:27:51.514Z,83
2023-05-19T04:30:22.821Z,82
2023-05-19T04:32:53.344Z,83
2023-05-19T04:35:24.212Z,83
2023-05-19T04:37:54.769Z,83
2023-05-19T04:40:25.495Z,83
2023-05-19T04:42:55.940Z,83
2023-05-19T04:45:26.278Z,83
2023-05-19T04:47:56.705Z,83
2023-05-19T04:50:27.496Z,82
2023-05-19T04:52:58.387Z,83
2023-05-19T04:55:30.035Z,83
2023-05-19T04:58:00.994Z,83
2023-05-19T05:00:32.219Z,84
2023-05-19T05:03:03.118Z,84
2023-05-19T05:05:33.646Z,84
2023-05-19T05:08:04.529Z,84
2023-05-19T05:10:35.078Z,83
2023-05-19T05:13:06.094Z,83
2023-05-19T05:15:37.724Z,83
2023-05-19T05:18:08.894Z,84
2023-05-19T05:20:39.887Z,84
2023-05-19T05:23:10.396Z,83
2023-05-19T05:25:41.897Z,83
2023-05-19T05:28:13.057Z,84
2023-05-19T05:30:43.717Z,84
2023-05-19T05:33:14.432Z,84
2023-05-19T05:35:44.674Z,84
2023-05-19T05:38:15.228Z,84
2023-05-19T05:40:45.855Z,83
2023-05-19T05:43:16.796Z,83
2023-05-19T05:45:47.750Z,83
2023-05-19T05:48:18.398Z,83
2023-05-19T05:50:49.449Z,83
2023-05-19T05:53:19.703Z,83
2023-05-19T05:55:50.663Z,82
2023-05-19T05:58:21.326Z,83
2023-05-19T06:00:52.464Z,83
2023-05-19T06:03:22.811Z,83
2023-05-19T06:05:53.488Z,83
2023-05-19T06:08:23.698Z,83
2023-05-19T06:10:54.232Z,82
2023-05-19T06:13:24.989Z,82
2023-05-19T06:15:55.778Z,82
2023-05-19T06:18:26.343Z,83
2023-05-19T06:20:57.001Z,83
2023-05-19T06:23:27.915Z,83
2023-05-19T06:25:58.411Z,83
2023-05-19T06:28:29.128Z,83
2023-05-19T06:31:00.315Z,83
2023-05-19T06:33:30.955Z,83
2023-05-19T06:36:02.100Z,83
2023-05-19T06:38:33.629Z,83
2023-05-19T06:41:04.389Z,83
2023-05-19T06:43:34.962Z,82
2023-05-19T06:46:05.963Z,83
2023-05-19T06:48:36.930Z,83
2023-05-19T06:51:07.877Z,83
2023-05-19T06:53:38.763Z,83
2023-05-19T06:56:09.497Z,83
2023-05-19T06:58:40.036Z,83
2023-05-19T07:01:10.422Z,83
2023-05-19T07:03:41.574Z,83
2023-05-19T07:06:11.824Z,83
2023-05-19T07:08:42.850Z,83
2023-05-19T07:11:14.485Z,83
2023-05-19T07:13:45.048Z,83
2023-05-19T07:16:15.176Z,83
2023-05-19T07:18:46.465Z,82
2023-05-19T07:21:16.570Z,82
2023-05-19T07:23:47.214Z,82
2023-05-19T07:26:17.702Z,82
2023-05-19T07:28:47.032Z,82
2023-05-19T07:31:17.435Z,83
2023-05-19T07:33:47.984Z,83
2023-05-19T07:36:18.092Z,83
2023-05-19T07:38:54.517Z,82
2023-05-19T07:41:25.366Z,83
2023-05-19T07:43:55.705Z,83
2023-05-19T07:46:26.058Z,82
2023-05-19T07:48:56.828Z,82
2023-05-19T07:51:27.706Z,82
2023-05-19T07:53:58.300Z,82
2023-05-19T07:56:28.824Z,82
2023-05-19T07:58:59.352Z,82
2023-05-19T08:01:29.657Z,82
2023-05-19T08:04:00.467Z,82
2023-05-19T08:06:31.179Z,82
2023-05-19T08:09:01.689Z,82
2023-05-19T08:11:32.372Z,82
2023-05-19T08:14:03.089Z,82
2023-05-19T08:16:34.600Z,82
2023-05-19T08:19:05.183Z,82
2023-05-19T08:21:35.741Z,81
2023-05-19T08:24:06.476Z,81
2023-05-19T08:26:37.897Z,81
2023-05-19T08:29:07.382Z,81
2023-05-19T08:31:38.382Z,81
2023-05-19T08:34:09.170Z,80
2023-05-19T08:36:39.610Z,80
2023-05-19T08:39:10.197Z,80
2023-05-19T08:41:40.919Z,79
2023-05-19T08:44:11.687Z,79
2023-05-19T08:46:42.601Z,80
2023-05-19T08:49:12.944Z,79
2023-05-19T08:51:43.864Z,79
2023-05-19T08:54:14.721Z,79
2023-05-19T08:56:45.710Z,78
2023-05-19T08:59:16.434Z,79
2023-05-19T09:01:48.270Z,78
2023-05-19T09:04:18.711Z,78
2023-05-19T09:06:49.921Z,78
2023-05-19T09:09:20.193Z,78
2023-05-19T09:11:51.055Z,77
2023-05-19T09:14:21.977Z,77
2023-05-19T09:16:52.694Z,77
2023-05-19T09:19:23.448Z,77
2023-05-19T09:21:54.540Z,77
2023-05-19T09:24:24.909Z,76
2023-05-19T09:27:00.510Z,75
2023-05-19T09:29:32.253Z,76
2023-05-19T09:32:03.065Z,75
2023-05-19T09:34:34.073Z,75
2023-05-19T09:37:04.940Z,76
2023-05-19T09:39:40.050Z,76
2023-05-19T09:42:16.531Z,76
2023-05-19T09:44:47.389Z,76
2023-05-19T09:47:18.338Z,76
2023-05-19T09:49:50.919Z,76
2023-05-19T09:52:24.059Z,77
2023-05-19T09:54:55.645Z,76
2023-05-19T09:57:29.259Z,76
2023-05-19T10:00:03.002Z,76
2023-05-19T10:02:33.872Z,75
2023-05-19T10:05:08.483Z,75
2023-05-19T10:07:39.393Z,76
2023-05-19T10:10:09.848Z,75
2023-05-19T10:12:40.901Z,75
2023-05-19T10:15:25.266Z,74
2023-05-19T10:17:56.637Z,73
2023-05-19T10:20:27.833Z,73
2023-05-19T10:22:59.146Z,72
2023-05-19T10:25:30.837Z,71
2023-05-19T10:28:02.172Z,71
2023-05-19T10:30:35.141Z,70
2023-05-19T10:33:05.373Z,70
2023-05-19T10:35:35.860Z,71
2023-05-19T10:38:09.726Z,69
2023-05-19T10:40:45.326Z,67
2023-05-19T10:43:15.160Z,68
2023-05-19T10:45:45.627Z,67
2023-05-19T10:48:17.492Z,66
2023-05-19T10:50:55.081Z,68
2023-05-19T10:53:25.844Z,69
2023-05-19T10:56:01.492Z,69
2023-05-19T10:58:38.990Z,68
2023-05-19T11:01:10.842Z,68
2023-05-19T11:03:42.961Z,68
2023-05-19T11:06:13.747Z,68
2023-05-19T11:08:44.534Z,66
2023-05-19T11:11:15.495Z,66
2023-05-19T11:13:50.313Z,65
2023-05-19T11:16:25.527Z,66
2023-05-19T11:19:00.961Z,65
2023-05-19T11:21:36.621Z,65
2023-05-19T11:24:07.606Z,65
2023-05-19T11:26:38.007Z,66
2023-05-19T11:29:08.763Z,65
2023-05-19T11:31:41.399Z,66
2023-05-19T11:34:12.152Z,64
2023-05-19T11:36:41.563Z,64
2023-05-19T11:39:10.886Z,64
2023-05-19T11:41:43.298Z,64
2023-05-19T11:44:18.897Z,65
2023-05-19T11:46:50.516Z,65
2023-05-19T11:49:22.396Z,64
2023-05-19T11:51:53.511Z,63
2023-05-19T11:54:25.164Z,64
2023-05-19T11:59:26.559Z,62
2023-05-19T12:01:56.985Z,63
2023-05-19T12:04:27.691Z,62
2023-05-19T12:06:59.304Z,62
2023-05-19T12:09:35.153Z,63
2023-05-19T12:12:05.381Z,64
2023-05-19T12:14:37.111Z,63
2023-05-19T12:17:07.942Z,63
2023-05-19T12:19:38.811Z,64
2023-05-19T12:22:12.793Z,63
2023-05-19T12:24:47.452Z,62
2023-05-19T12:27:18.630Z,61
2023-05-19T12:29:49.241Z,61
2023-05-19T12:32:19.583Z,60
2023-05-19T12:34:50.384Z,61
2023-05-19T12:37:22.225Z,61
2023-05-19T12:39:53.255Z,61
2023-05-19T12:42:23.666Z,61
2023-05-19T12:44:54.534Z,60
2023-05-19T12:47:25.381Z,59
2023-05-19T12:49:56.319Z,58
2023-05-19T12:52:30.716Z,59
2023-05-19T12:55:01.447Z,59
2023-05-19T12:57:33.822Z,58
2023-05-19T13:00:04.709Z,57
2023-05-19T13:02:38.443Z,56
2023-05-19T13:05:10.804Z,55
2023-05-19T13:07:41.394Z,57
2023-05-19T13:10:13.326Z,55
2023-05-19T13:12:44.037Z,55
2023-05-19T13:15:13.907Z,56
2023-05-19T13:17:45.864Z,56
2023-05-19T13:20:17.336Z,56
2023-05-19T13:22:48.542Z,58
2023-05-19T13:25:19.780Z,58
2023-05-19T13:27:50.826Z,58
2023-05-19T13:30:21.653Z,60
2023-05-19T13:32:56.606Z,58
2023-05-19T13:38:08.357Z,62
2023-05-19T13:40:42.778Z,60
2023-05-19T13:43:16.412Z,61
2023-05-19T13:45:46.665Z,59
2023-05-19T13:48:17.648Z,59
2023-05-19T13:50:48.570Z,59
2023-05-19T13:53:19.279Z,57
2023-05-19T13:55:49.936Z,57
2023-05-19T13:58:21.516Z,60
2023-05-19T14:00:52.458Z,60
2023-05-19T14:03:23.205Z,59
2023-05-19T14:05:54.490Z,60
2023-05-19T14:08:25.694Z,60
2023-05-19T14:11:05.741Z,61
2023-05-19T14:13:38.329Z,61
2023-05-19T14:16:11.164Z,60
2023-05-19T14:18:42.563Z,60
2023-05-19T14:21:13.523Z,59
2023-05-19T14:23:43.760Z,60
2023-05-19T14:26:15.580Z,60
2023-05-19T14:28:46.375Z,61
2023-05-19T14:31:17.511Z,62
2023-05-19T14:33:55.587Z,60
2023-05-19T14:36:27.047Z,62
2023-05-19T14:38:58.070Z,62
2023-05-19T14:41:29.117Z,60
2023-05-19T14:44:00.351Z,61
2023-05-19T14:46:31.138Z,62
2023-05-19T14:49:02.125Z,64
2023-05-19T14:51:34.218Z,64
2023-05-19T14:54:05.427Z,64
2023-05-19T14:56:35.924Z,61
2023-05-19T14:59:06.261Z,62
2023-05-19T15:01:36.949Z,62
2023-05-19T15:04:07.353Z,62
2023-05-19T15:06:39.642Z,63
2023-05-19T15:09:10.633Z,62
2023-05-19T15:11:41.203Z,63
2023-05-19T15:14:12.033Z,63
2023-05-19T15:16:46.154Z,64
2023-05-19T15:19:21.033Z,65
2023-05-19T15:21:52.231Z,64
2023-05-19T15:24:22.963Z,64
2023-05-19T15:26:53.212Z,64
2023-05-19T15:29:23.551Z,64
2023-05-19T15:31:56.735Z,64
2023-05-19T15:34:28.568Z,64
2023-05-19T15:37:03.363Z,65
2023-05-19T15:39:34.056Z,64
2023-05-19T15:42:05.572Z,63
2023-05-19T15:44:42.983Z,63
2023-05-19T15:47:13.893Z,64
2023-05-19T15:49:44.370Z,63
2023-05-19T15:52:15.066Z,63
2023-05-19T15:54:45.662Z,64
2023-05-19T15:57:20.608Z,64
2023-05-19T15:59:51.214Z,64
2023-05-19T16:02:21.978Z,65
2023-05-19T16:04:56.981Z,65
2023-05-19T16:07:34.804Z,64
2023-05-19T16:10:03.493Z,65
2023-05-19T16:12:42.333Z,66
2023-05-19T16:15:16.966Z,64
2023-05-19T16:17:56.097Z,65
2023-05-19T16:20:29.981Z,65
2023-05-19T16:23:02.589Z,65
2023-05-19T16:25:33.428Z,65
2023-05-19T16:28:08.147Z,66
2023-05-19T16:30:41.450Z,66
2023-05-19T16:33:12.029Z,65
2023-05-19T16:35:44.521Z,66
2023-05-19T16:38:15.230Z,67
2023-05-19T16:40:45.826Z,67
2023-05-19T16:43:16.344Z,67
2023-05-19T16:45:47.167Z,67
2023-05-19T16:48:20.394Z,67
2023-05-19T16:50:51.211Z,67
2023-05-19T16:53:21.842Z,67
2023-05-19T16:55:52.324Z,67
2023-05-19T16:58:22.933Z,68
2023-05-19T17:00:54.821Z,68
2023-05-19T17:03:25.350Z,68
2023-05-19T17:05:56.807Z,68
2023-05-19T17:08:27.174Z,68
2023-05-19T17:11:01.832Z,68
2023-05-19T17:13:33.463Z,68
2023-05-19T17:16:08.063Z,69
2023-05-19T17:18:41.365Z,69
2023-05-19T17:21:18.195Z,69
2023-05-19T17:23:50.012Z,68
2023-05-19T17:26:21.284Z,69
2023-05-19T17:28:56.993Z,70
2023-05-19T17:31:33.160Z,70
2023-05-19T17:34:03.870Z,70
2023-05-19T17:36:43.784Z,69
2023-05-19T17:39:14.925Z,69
2023-05-19T17:41:45.482Z,69
2023-05-19T17:44:19.015Z,69
2023-05-19T17:46:51.064Z,70
2023-05-19T17:49:26.945Z,70
2023-05-19T17:51:59.643Z,70
2023-05-19T17:54:37.401Z,71
2023-05-19T17:57:08.152Z,71
2023-05-19T17:59:38.651Z,71
2023-05-19T18:02:10.400Z,71
2023-05-19T18:04:47.210Z,71
2023-05-19T18:07:20.816Z,71
2023-05-19T18:09:51.410Z,71
2023-05-19T18:12:22.000Z,72
2023-05-19T18:14:55.391Z,72
2023-05-19T18:17:26.446Z,72
2023-05-19T18:20:00.095Z,72
2023-05-19T18:22:30.696Z,72
2023-05-19T18:25:01.112Z,72
2023-05-19T18:27:31.560Z,72
2023-05-19T18:30:02.531Z,73
2023-05-19T18:32:32.994Z,72
2023-05-19T18:35:03.611Z,73
2023-05-19T18:37:37.483Z,73
2023-05-19T18:40:09.753Z,73
2023-05-19T18:42:42.603Z,73
2023-05-19T18:45:17.556Z,73
2023-05-19T18:47:48.412Z,74
2023-05-19T18:50:18.693Z,74
2023-05-19T18:52:51.616Z,74
2023-05-19T18:55:28.957Z,75
2023-05-19T18:58:04.008Z,74
2023-05-19T19:00:36.479Z,75
2023-05-19T19:03:07.143Z,75
2023-05-19T19:05:41.653Z,75
2023-05-19T19:08:16.224Z,75
2023-05-19T19:10:49.162Z,75
2023-05-19T19:13:21.151Z,75
2023-05-19T19:15:52.562Z,75
2023-05-19T19:18:23.257Z,75
2023-05-19T19:20:54.103Z,75
2023-05-19T19:23:24.952Z,75
2023-05-19T19:25:56.223Z,75
2023-05-19T19:28:32.099Z,75
2023-05-19T19:31:03.028Z,76
2023-05-19T19:33:33.418Z,76
2023-05-19T19:36:04.005Z,76
2023-05-19T19:38:35.352Z,76
2023-05-19T19:41:06.003Z,77
2023-05-19T19:43:36.292Z,77
2023-05-19T19:46:08.652Z,77
2023-05-19T19:48:43.576Z,78
2023-05-19T19:51:15.386Z,78
2023-05-19T19:53:46.212Z,78
2023-05-19T19:56:22.668Z,78
2023-05-19T19:58:58.984Z,78
2023-05-19T20:01:28.285Z,78
2023-05-19T20:03:58.684Z,79
2023-05-19T20:06:32.888Z,78
2023-05-19T20:11:39.061Z,78
2023-05-19T20:14:10.392Z,78
2023-05-19T20:19:17.427Z,79
2023-05-19T20:21:57.192Z,78
2023-05-19T20:24:39.947Z,79
2023-05-19T20:27:09.845Z,79
2023-05-19T20:29:42.215Z,79
2023-05-19T20:32:14.006Z,79
2023-05-19T20:34:47.351Z,80
2023-05-19T20:37:22.678Z,79
2023-05-19T20:39:54.489Z,79
2023-05-19T20:42:26.230Z,79
2023-05-19T20:44:58.318Z,80
2023-05-19T20:47:30.496Z,80
2023-05-19T20:50:05.736Z,80
2023-05-19T20:52:36.636Z,80
2023-05-19T20:55:05.491Z,80
2023-05-19T20:57:36.352Z,81
2023-05-19T21:00:06.951Z,81
2023-05-19T21:02:40.910Z,81
2023-05-19T21:05:11.940Z,80
2023-05-19T21:07:44.791Z,80
2023-05-19T21:10:16.215Z,80
2023-05-19T21:12:46.546Z,80
2023-05-19T21:15:26.685Z,80
2023-05-19T21:17:59.250Z,79
2023-05-19T21:20:30.071Z,79
2023-05-19T21:23:00.789Z,78
2023-05-19T21:25:31.214Z,78
2023-05-19T21:28:04.513Z,79
2023-05-19T21:30:35.533Z,78
2023-05-19T21:33:06.320Z,79
2023-05-19T21:35:37.130Z,80
2023-05-19T21:38:22.480Z,79
2023-05-19T21:40:40.354Z,79
2023-05-19T21:43:11.157Z,79
2023-05-19T21:45:42.028Z,80
2023-05-19T21:48:12.916Z,80
2023-05-19T21:50:44.199Z,79
2023-05-19T21:53:16.575Z,79
2023-05-19T21:55:51.605Z,79
2023-05-19T21:58:22.124Z,79
2023-05-19T22:00:54.224Z,79
2023-05-19T22:03:30.184Z,79
2023-05-19T22:06:01.330Z,79
2023-05-19T22:08:36.908Z,79
2023-05-19T22:11:08.165Z,79
2023-05-19T22:13:38.900Z,79
2023-05-19T22:16:10.158Z,79
2023-05-19T22:18:41.437Z,78
2023-05-19T22:21:11.818Z,79
2023-05-19T22:23:46.022Z,79
2023-05-19T22:26:16.900Z,79
2023-05-19T22:28:47.410Z,79
2023-05-19T22:31:24.771Z,79
2023-05-19T22:33:56.284Z,79
2023-05-19T22:36:29.932Z,79
2023-05-19T22:39:00.505Z,80
2023-05-19T22:41:30.980Z,79
2023-05-19T22:44:01.723Z,79
2023-05-19T22:46:32.342Z,79
2023-05-19T22:49:03.126Z,79
2023-05-19T22:51:33.621Z,79
2023-05-19T22:54:06.203Z,79
2023-05-19T22:56:44.396Z,79
2023-05-19T22:59:14.074Z,79
2023-05-19T23:01:45.027Z,78
2023-05-19T23:04:15.983Z,78
2023-05-19T23:06:49.784Z,78
2023-05-19T23:09:20.533Z,78
2023-05-19T23:11:51.861Z,79
2023-05-19T23:14:21.861Z,79
2023-05-19T23:16:52.931Z,79
2023-05-19T23:19:24.001Z,79
2023-05-19T23:21:54.617Z,79
2023-05-19T23:24:25.275Z,79
2023-05-19T23:26:56.956Z,79
2023-05-19T23:29:27.564Z,78
2023-05-19T23:31:58.192Z,79
2023-05-19T23:34:29.044Z,80
2023-05-19T23:37:00.293Z,80
2023-05-19T23:39:32.072Z,79
2023-05-19T23:42:03.623Z,79
2023-05-19T23:44:34.952Z,79
2023-05-19T23:47:05.642Z,79
2023-05-19T23:49:39.043Z,79
2023-05-19T23:52:10.379Z,79
2023-05-19T23:54:41.361Z,80
2023-05-19T23:57:11.908Z,80
2023-05-19T23:59:42.796Z,79
